sensor_id;sensor_type;location;lat;lon;timestamp;P1;durP1;ratioP1;P2;durP2;ratioP2
18899;SDS011;9582;52.018;6.306;2024-03-23T00:55:05;28.13;;;11.30;;
18899;SDS011;9582;52.018;6.306;2024-03-23T00:57:32;34.03;;;11.77;;
18899;SDS011;9582;52.018;6.306;2024-03-23T00:59:59;30.83;;;10.73;;
18899;SDS011;9582;52.018;6.306;2024-03-23T01:02:25;38.67;;;12.30;;
18899;SDS011;9582;52.018;6.306;2024-03-23T01:04:51;29.27;;;11.03;;
18899;SDS011;9582;52.018;6.306;2024-03-23T01:07:17;27.20;;;11.87;;
18899;SDS011;9582;52.018;6.306;2024-03-23T01:09:45;33.33;;;11.43;;
18899;SDS011;9582;52.018;6.306;2024-03-23T01:12:10;27.80;;;11.47;;
18899;SDS011;9582;52.018;6.306;2024-03-23T01:14:37;35.20;;;11.37;;
18899;SDS011;9582;52.018;6.306;2024-03-23T01:17:03;34.20;;;11.83;;
18899;SDS011;9582;52.018;6.306;2024-03-23T01:19:29;28.07;;;10.87;;
18899;SDS011;9582;52.018;6.306;2024-03-23T01:21:55;35.93;;;12.10;;
18899;SDS011;9582;52.018;6.306;2024-03-23T01:24:22;39.47;;;11.60;;
18899;SDS011;9582;52.018;6.306;2024-03-23T01:26:49;30.60;;;10.60;;
18899;SDS011;9582;52.018;6.306;2024-03-23T01:29:15;34.33;;;10.67;;
18899;SDS011;9582;52.018;6.306;2024-03-23T01:31:41;36.30;;;10.90;;
18899;SDS011;9582;52.018;6.306;2024-03-23T01:34:08;34.20;;;11.00;;
18899;SDS011;9582;52.018;6.306;2024-03-23T01:36:33;29.67;;;11.37;;
18899;SDS011;9582;52.018;6.306;2024-03-23T01:39:00;35.97;;;11.20;;
18899;SDS011;9582;52.018;6.306;2024-03-23T01:41:25;35.33;;;11.30;;
18899;SDS011;9582;52.018;6.306;2024-03-23T01:43:54;31.50;;;10.23;;
18899;SDS011;9582;52.018;6.306;2024-03-23T01:46:20;31.03;;;9.90;;
18899;SDS011;9582;52.018;6.306;2024-03-23T01:48:46;39.13;;;10.70;;
18899;SDS011;9582;52.018;6.306;2024-03-23T01:51:12;30.63;;;10.13;;
18899;SDS011;9582;52.018;6.306;2024-03-23T01:53:39;25.83;;;9.97;;
18899;SDS011;9582;52.018;6.306;2024-03-23T01:56:05;36.60;;;10.80;;
18899;SDS011;9582;52.018;6.306;2024-03-23T01:58:32;30.20;;;10.53;;
18899;SDS011;9582;52.018;6.306;2024-03-23T02:00:59;29.07;;;9.70;;
18899;SDS011;9582;52.018;6.306;2024-03-23T02:03:26;31.07;;;9.47;;
18899;SDS011;9582;52.018;6.306;2024-03-23T02:05:53;34.57;;;9.97;;
18899;SDS011;9582;52.018;6.306;2024-03-23T02:08:21;31.10;;;9.60;;
18899;SDS011;9582;52.018;6.306;2024-03-23T02:10:48;31.73;;;10.17;;
18899;SDS011;9582;52.018;6.306;2024-03-23T02:13:15;27.20;;;9.80;;
18899;SDS011;9582;52.018;6.306;2024-03-23T02:15:42;30.57;;;10.30;;
18899;SDS011;9582;52.018;6.306;2024-03-23T02:18:11;29.97;;;11.60;;
18899;SDS011;9582;52.018;6.306;2024-03-23T02:20:37;36.83;;;10.63;;
18899;SDS011;9582;52.018;6.306;2024-03-23T02:23:05;32.23;;;11.07;;
18899;SDS011;9582;52.018;6.306;2024-03-23T02:25:31;36.57;;;10.73;;
18899;SDS011;9582;52.018;6.306;2024-03-23T02:27:58;26.87;;;10.33;;
18899;SDS011;9582;52.018;6.306;2024-03-23T02:30:24;34.07;;;10.47;;
18899;SDS011;9582;52.018;6.306;2024-03-23T02:32:51;31.13;;;10.93;;
18899;SDS011;9582;52.018;6.306;2024-03-23T02:35:16;31.60;;;10.30;;
18899;SDS011;9582;52.018;6.306;2024-03-23T02:37:43;39.20;;;10.90;;
18899;SDS011;9582;52.018;6.306;2024-03-23T02:40:10;27.73;;;10.80;;
18899;SDS011;9582;52.018;6.306;2024-03-23T02:42:37;35.03;;;12.07;;
18899;SDS011;9582;52.018;6.306;2024-03-23T02:45:02;33.70;;;12.10;;
18899;SDS011;9582;52.018;6.306;2024-03-23T02:47:30;34.67;;;11.73;;
18899;SDS011;9582;52.018;6.306;2024-03-23T02:49:55;37.27;;;11.50;;
18899;SDS011;9582;52.018;6.306;2024-03-23T02:52:22;30.40;;;11.33;;
18899;SDS011;9582;52.018;6.306;2024-03-23T02:54:48;34.83;;;11.93;;
18899;SDS011;9582;52.018;6.306;2024-03-23T02:57:16;33.57;;;12.83;;
18899;SDS011;9582;52.018;6.306;2024-03-23T02:59:41;30.57;;;12.20;;
18899;SDS011;9582;52.018;6.306;2024-03-23T03:02:08;37.57;;;13.83;;
18899;SDS011;9582;52.018;6.306;2024-03-23T03:04:34;40.30;;;12.53;;
18899;SDS011;9582;52.018;6.306;2024-03-23T03:07:00;40.57;;;13.03;;
18899;SDS011;9582;52.018;6.306;2024-03-23T03:09:26;33.80;;;12.53;;
18899;SDS011;9582;52.018;6.306;2024-03-23T03:11:53;38.17;;;13.37;;
18899;SDS011;9582;52.018;6.306;2024-03-23T03:14:20;36.83;;;13.93;;
18899;SDS011;9582;52.018;6.306;2024-03-23T03:16:46;28.90;;;11.93;;
18899;SDS011;9582;52.018;6.306;2024-03-23T03:19:12;28.37;;;12.53;;
18899;SDS011;9582;52.018;6.306;2024-03-23T03:21:38;29.73;;;12.80;;
18899;SDS011;9582;52.018;6.306;2024-03-23T03:24:05;32.27;;;11.33;;
18899;SDS011;9582;52.018;6.306;2024-03-23T03:26:32;26.90;;;11.50;;
18899;SDS011;9582;52.018;6.306;2024-03-23T03:28:58;28.60;;;11.73;;
18899;SDS011;9582;52.018;6.306;2024-03-23T03:31:27;26.50;;;11.20;;
18899;SDS011;9582;52.018;6.306;2024-03-23T03:33:52;28.13;;;11.80;;
18899;SDS011;9582;52.018;6.306;2024-03-23T03:36:19;26.50;;;11.10;;
18899;SDS011;9582;52.018;6.306;2024-03-23T03:38:45;27.80;;;11.33;;
18899;SDS011;9582;52.018;6.306;2024-03-23T03:41:11;18.50;;;10.00;;
18899;SDS011;9582;52.018;6.306;2024-03-23T03:43:37;28.53;;;10.30;;
18899;SDS011;9582;52.018;6.306;2024-03-23T03:46:04;24.13;;;10.30;;
18899;SDS011;9582;52.018;6.306;2024-03-23T03:48:31;25.03;;;10.00;;
18899;SDS011;9582;52.018;6.306;2024-03-23T03:50:58;25.10;;;11.10;;
18899;SDS011;9582;52.018;6.306;2024-03-23T03:53:23;28.00;;;11.07;;
18899;SDS011;9582;52.018;6.306;2024-03-23T03:55:50;26.83;;;11.50;;
18899;SDS011;9582;52.018;6.306;2024-03-23T03:58:15;27.60;;;10.73;;
18899;SDS011;9582;52.018;6.306;2024-03-23T04:00:42;24.17;;;10.90;;
18899;SDS011;9582;52.018;6.306;2024-03-23T04:03:08;27.33;;;11.43;;
18899;SDS011;9582;52.018;6.306;2024-03-23T04:05:36;25.77;;;11.83;;
18899;SDS011;9582;52.018;6.306;2024-03-23T04:08:01;30.27;;;12.10;;
18899;SDS011;9582;52.018;6.306;2024-03-23T04:10:29;33.97;;;12.23;;
18899;SDS011;9582;52.018;6.306;2024-03-23T04:12:54;26.97;;;12.47;;
18899;SDS011;9582;52.018;6.306;2024-03-23T04:15:21;25.07;;;12.67;;
18899;SDS011;9582;52.018;6.306;2024-03-23T04:17:47;29.93;;;12.50;;
18899;SDS011;9582;52.018;6.306;2024-03-23T04:20:13;32.17;;;12.97;;
18899;SDS011;9582;52.018;6.306;2024-03-23T04:22:43;33.80;;;13.30;;
18899;SDS011;9582;52.018;6.306;2024-03-23T04:25:10;27.77;;;11.80;;
18899;SDS011;9582;52.018;6.306;2024-03-23T04:27:36;31.07;;;12.77;;
18899;SDS011;9582;52.018;6.306;2024-03-23T04:30:03;30.07;;;13.00;;
18899;SDS011;9582;52.018;6.306;2024-03-23T04:32:35;23.97;;;12.23;;
18899;SDS011;9582;52.018;6.306;2024-03-23T04:35:01;32.83;;;13.20;;
18899;SDS011;9582;52.018;6.306;2024-03-23T04:37:28;34.50;;;13.53;;
18899;SDS011;9582;52.018;6.306;2024-03-23T04:39:56;32.63;;;13.43;;
18899;SDS011;9582;52.018;6.306;2024-03-23T04:42:22;31.73;;;12.57;;
18899;SDS011;9582;52.018;6.306;2024-03-23T04:44:48;31.87;;;12.57;;
18899;SDS011;9582;52.018;6.306;2024-03-23T04:47:15;24.77;;;12.43;;
18899;SDS011;9582;52.018;6.306;2024-03-23T04:49:43;26.43;;;12.60;;
18899;SDS011;9582;52.018;6.306;2024-03-23T04:52:10;40.57;;;13.53;;
18899;SDS011;9582;52.018;6.306;2024-03-23T04:54:35;27.83;;;11.57;;
18899;SDS011;9582;52.018;6.306;2024-03-23T04:57:03;25.77;;;13.63;;
18899;SDS011;9582;52.018;6.306;2024-03-23T04:59:30;30.33;;;12.70;;
18899;SDS011;9582;52.018;6.306;2024-03-23T05:01:57;28.60;;;12.97;;
18899;SDS011;9582;52.018;6.306;2024-03-23T05:04:25;30.40;;;12.57;;
18899;SDS011;9582;52.018;6.306;2024-03-23T05:06:51;27.00;;;12.30;;
18899;SDS011;9582;52.018;6.306;2024-03-23T05:09:17;26.27;;;11.77;;
18899;SDS011;9582;52.018;6.306;2024-03-23T05:11:43;29.57;;;12.10;;
18899;SDS011;9582;52.018;6.306;2024-03-23T05:14:13;30.67;;;12.57;;
18899;SDS011;9582;52.018;6.306;2024-03-23T05:16:40;28.67;;;12.03;;
18899;SDS011;9582;52.018;6.306;2024-03-23T05:19:06;24.60;;;11.00;;
18899;SDS011;9582;52.018;6.306;2024-03-23T05:21:32;30.47;;;12.33;;
18899;SDS011;9582;52.018;6.306;2024-03-23T05:23:58;29.47;;;12.73;;
18899;SDS011;9582;52.018;6.306;2024-03-23T05:26:25;27.00;;;12.23;;
18899;SDS011;9582;52.018;6.306;2024-03-23T05:28:50;27.17;;;12.03;;
18899;SDS011;9582;52.018;6.306;2024-03-23T05:31:23;29.67;;;13.00;;
18899;SDS011;9582;52.018;6.306;2024-03-23T05:33:49;26.77;;;11.37;;
18899;SDS011;9582;52.018;6.306;2024-03-23T05:36:17;26.40;;;11.40;;
18899;SDS011;9582;52.018;6.306;2024-03-23T05:38:43;27.20;;;11.90;;
18899;SDS011;9582;52.018;6.306;2024-03-23T05:41:09;21.53;;;9.77;;
18899;SDS011;9582;52.018;6.306;2024-03-23T05:43:35;28.07;;;11.03;;
18899;SDS011;9582;52.018;6.306;2024-03-23T05:46:01;22.83;;;10.13;;
18899;SDS011;9582;52.018;6.306;2024-03-23T05:48:29;27.40;;;10.93;;
18899;SDS011;9582;52.018;6.306;2024-03-23T05:50:56;24.73;;;10.03;;
18899;SDS011;9582;52.018;6.306;2024-03-23T05:53:23;27.80;;;10.30;;
18899;SDS011;9582;52.018;6.306;2024-03-23T05:55:50;24.43;;;10.23;;
18899;SDS011;9582;52.018;6.306;2024-03-23T05:58:18;26.77;;;9.40;;
18899;SDS011;9582;52.018;6.306;2024-03-23T06:00:45;21.60;;;9.73;;
18899;SDS011;9582;52.018;6.306;2024-03-23T06:03:11;20.20;;;8.53;;
18899;SDS011;9582;52.018;6.306;2024-03-23T06:05:39;21.30;;;7.90;;
18899;SDS011;9582;52.018;6.306;2024-03-23T06:08:05;15.00;;;6.63;;
18899;SDS011;9582;52.018;6.306;2024-03-23T06:10:34;19.73;;;7.77;;
18899;SDS011;9582;52.018;6.306;2024-03-23T06:13:00;17.03;;;6.30;;
18899;SDS011;9582;52.018;6.306;2024-03-23T06:15:27;15.47;;;5.97;;
18899;SDS011;9582;52.018;6.306;2024-03-23T06:17:53;17.30;;;6.67;;
18899;SDS011;9582;52.018;6.306;2024-03-23T06:20:19;11.50;;;5.53;;
18899;SDS011;9582;52.018;6.306;2024-03-23T06:22:47;15.77;;;6.00;;
18899;SDS011;9582;52.018;6.306;2024-03-23T06:25:13;12.50;;;5.83;;
18899;SDS011;9582;52.018;6.306;2024-03-23T06:27:39;14.93;;;6.30;;
18899;SDS011;9582;52.018;6.306;2024-03-23T06:30:06;12.30;;;5.03;;
18899;SDS011;9582;52.018;6.306;2024-03-23T06:32:32;12.60;;;5.00;;
18899;SDS011;9582;52.018;6.306;2024-03-23T06:34:59;17.33;;;5.53;;
18899;SDS011;9582;52.018;6.306;2024-03-23T06:37:25;11.53;;;5.00;;
18899;SDS011;9582;52.018;6.306;2024-03-23T06:39:55;10.73;;;4.50;;
18899;SDS011;9582;52.018;6.306;2024-03-23T06:42:20;9.57;;;4.13;;
18899;SDS011;9582;52.018;6.306;2024-03-23T06:44:47;10.93;;;4.20;;
18899;SDS011;9582;52.018;6.306;2024-03-23T06:47:13;8.90;;;4.20;;
18899;SDS011;9582;52.018;6.306;2024-03-23T06:49:39;12.73;;;4.90;;
18899;SDS011;9582;52.018;6.306;2024-03-23T06:52:05;11.70;;;4.10;;
18899;SDS011;9582;52.018;6.306;2024-03-23T06:54:32;11.53;;;4.23;;
18899;SDS011;9582;52.018;6.306;2024-03-23T06:56:59;9.80;;;3.93;;
18899;SDS011;9582;52.018;6.306;2024-03-23T06:59:25;12.97;;;3.50;;
18899;SDS011;9582;52.018;6.306;2024-03-23T07:01:51;11.53;;;3.63;;
18899;SDS011;9582;52.018;6.306;2024-03-23T07:04:17;11.80;;;3.67;;
18899;SDS011;9582;52.018;6.306;2024-03-23T07:06:44;8.93;;;4.20;;
18899;SDS011;9582;52.018;6.306;2024-03-23T07:09:11;14.07;;;4.30;;
18899;SDS011;9582;52.018;6.306;2024-03-23T07:11:37;7.93;;;4.23;;
18899;SDS011;9582;52.018;6.306;2024-03-23T07:14:05;13.77;;;5.10;;
18899;SDS011;9582;52.018;6.306;2024-03-23T07:16:31;9.43;;;3.93;;
18899;SDS011;9582;52.018;6.306;2024-03-23T07:18:57;7.50;;;3.70;;
18899;SDS011;9582;52.018;6.306;2024-03-23T07:21:23;9.20;;;2.73;;
18899;SDS011;9582;52.018;6.306;2024-03-23T07:23:50;10.73;;;3.73;;
18899;SDS011;9582;52.018;6.306;2024-03-23T07:26:16;9.83;;;3.67;;
18899;SDS011;9582;52.018;6.306;2024-03-23T07:28:44;9.63;;;3.03;;
18899;SDS011;9582;52.018;6.306;2024-03-23T07:31:13;12.03;;;3.70;;
18899;SDS011;9582;52.018;6.306;2024-03-23T07:33:44;11.70;;;3.80;;
18899;SDS011;9582;52.018;6.306;2024-03-23T07:36:12;7.27;;;3.13;;
18899;SDS011;9582;52.018;6.306;2024-03-23T07:38:40;9.37;;;3.50;;
18899;SDS011;9582;52.018;6.306;2024-03-23T07:41:07;9.97;;;3.00;;
18899;SDS011;9582;52.018;6.306;2024-03-23T07:43:34;8.60;;;3.00;;
18899;SDS011;9582;52.018;6.306;2024-03-23T07:46:00;12.57;;;4.10;;
18899;SDS011;9582;52.018;6.306;2024-03-23T07:48:30;11.87;;;3.67;;
18899;SDS011;9582;52.018;6.306;2024-03-23T07:50:57;10.77;;;2.93;;
18899;SDS011;9582;52.018;6.306;2024-03-23T07:53:24;9.60;;;3.67;;
18899;SDS011;9582;52.018;6.306;2024-03-23T07:55:56;9.13;;;3.17;;
18899;SDS011;9582;52.018;6.306;2024-03-23T07:58:24;11.53;;;3.20;;
18899;SDS011;9582;52.018;6.306;2024-03-23T08:00:50;11.63;;;3.50;;
18899;SDS011;9582;52.018;6.306;2024-03-23T08:03:17;12.43;;;3.90;;
18899;SDS011;9582;52.018;6.306;2024-03-23T08:05:44;5.77;;;2.63;;
18899;SDS011;9582;52.018;6.306;2024-03-23T08:08:10;8.60;;;3.20;;
18899;SDS011;9582;52.018;6.306;2024-03-23T08:10:36;6.80;;;3.30;;
18899;SDS011;9582;52.018;6.306;2024-03-23T08:13:03;6.80;;;2.93;;
18899;SDS011;9582;52.018;6.306;2024-03-23T08:15:30;12.77;;;3.33;;
18899;SDS011;9582;52.018;6.306;2024-03-23T08:17:58;8.30;;;3.53;;
18899;SDS011;9582;52.018;6.306;2024-03-23T08:20:24;3.20;;;1.87;;
18899;SDS011;9582;52.018;6.306;2024-03-23T08:22:51;5.50;;;2.27;;
18899;SDS011;9582;52.018;6.306;2024-03-23T08:25:17;11.10;;;3.53;;
18899;SDS011;9582;52.018;6.306;2024-03-23T08:27:44;6.97;;;2.70;;
18899;SDS011;9582;52.018;6.306;2024-03-23T08:30:10;4.67;;;2.43;;
18899;SDS011;9582;52.018;6.306;2024-03-23T08:32:37;6.00;;;2.20;;
18899;SDS011;9582;52.018;6.306;2024-03-23T08:35:03;6.83;;;1.73;;
18899;SDS011;9582;52.018;6.306;2024-03-23T08:37:30;3.93;;;2.43;;
18899;SDS011;9582;52.018;6.306;2024-03-23T08:39:58;2.23;;;1.60;;
18899;SDS011;9582;52.018;6.306;2024-03-23T08:42:24;7.47;;;2.67;;
18899;SDS011;9582;52.018;6.306;2024-03-23T08:44:50;6.53;;;3.77;;
18899;SDS011;9582;52.018;6.306;2024-03-23T08:47:16;7.47;;;2.87;;
18899;SDS011;9582;52.018;6.306;2024-03-23T08:49:44;6.23;;;2.47;;
18899;SDS011;9582;52.018;6.306;2024-03-23T08:52:09;6.60;;;2.80;;
18899;SDS011;9582;52.018;6.306;2024-03-23T08:54:36;5.47;;;2.40;;
18899;SDS011;9582;52.018;6.306;2024-03-23T08:57:03;8.10;;;2.53;;
18899;SDS011;9582;52.018;6.306;2024-03-23T08:59:30;6.67;;;1.60;;
18899;SDS011;9582;52.018;6.306;2024-03-23T09:01:56;8.00;;;2.30;;
18899;SDS011;9582;52.018;6.306;2024-03-23T09:04:22;5.03;;;1.67;;
18899;SDS011;9582;52.018;6.306;2024-03-23T09:06:48;8.73;;;2.30;;
18899;SDS011;9582;52.018;6.306;2024-03-23T09:09:15;6.40;;;2.10;;
18899;SDS011;9582;52.018;6.306;2024-03-23T09:11:40;6.87;;;1.60;;
18899;SDS011;9582;52.018;6.306;2024-03-23T09:14:08;4.23;;;1.57;;
18899;SDS011;9582;52.018;6.306;2024-03-23T09:16:34;7.33;;;2.33;;
18899;SDS011;9582;52.018;6.306;2024-03-23T09:19:01;1.60;;;1.10;;
18899;SDS011;9582;52.018;6.306;2024-03-23T09:21:26;8.80;;;2.43;;
18899;SDS011;9582;52.018;6.306;2024-03-23T09:23:53;4.17;;;2.03;;
18899;SDS011;9582;52.018;6.306;2024-03-23T09:26:19;3.50;;;1.57;;
18899;SDS011;9582;52.018;6.306;2024-03-23T09:28:47;5.73;;;1.77;;
18899;SDS011;9582;52.018;6.306;2024-03-23T09:31:15;6.47;;;2.10;;
18899;SDS011;9582;52.018;6.306;2024-03-23T09:33:41;5.33;;;2.10;;
18899;SDS011;9582;52.018;6.306;2024-03-23T09:36:07;4.70;;;1.70;;
18899;SDS011;9582;52.018;6.306;2024-03-23T09:38:34;4.33;;;1.30;;
18899;SDS011;9582;52.018;6.306;2024-03-23T09:41:00;5.53;;;1.73;;
18899;SDS011;9582;52.018;6.306;2024-03-23T09:43:32;4.77;;;1.37;;
18899;SDS011;9582;52.018;6.306;2024-03-23T09:45:58;2.37;;;1.30;;
18899;SDS011;9582;52.018;6.306;2024-03-23T09:48:26;4.87;;;1.60;;
18899;SDS011;9582;52.018;6.306;2024-03-23T09:50:52;3.83;;;1.30;;
18899;SDS011;9582;52.018;6.306;2024-03-23T09:53:19;7.90;;;1.77;;
18899;SDS011;9582;52.018;6.306;2024-03-23T09:55:44;4.43;;;1.40;;
18899;SDS011;9582;52.018;6.306;2024-03-23T09:58:12;4.80;;;1.60;;
18899;SDS011;9582;52.018;6.306;2024-03-23T10:00:38;7.00;;;1.67;;
18899;SDS011;9582;52.018;6.306;2024-03-23T10:03:05;3.73;;;1.77;;
18899;SDS011;9582;52.018;6.306;2024-03-23T10:05:33;3.90;;;1.93;;
18899;SDS011;9582;52.018;6.306;2024-03-23T10:08:00;6.53;;;1.73;;
18899;SDS011;9582;52.018;6.306;2024-03-23T10:10:42;8.70;;;1.80;;
18899;SDS011;9582;52.018;6.306;2024-03-23T10:13:09;2.80;;;1.50;;
18899;SDS011;9582;52.018;6.306;2024-03-23T10:15:36;2.80;;;1.33;;
18899;SDS011;9582;52.018;6.306;2024-03-23T10:18:04;4.30;;;1.90;;
18899;SDS011;9582;52.018;6.306;2024-03-23T10:20:45;2.53;;;0.87;;
18899;SDS011;9582;52.018;6.306;2024-03-23T10:23:16;8.17;;;1.67;;
18899;SDS011;9582;52.018;6.306;2024-03-23T10:25:42;5.80;;;1.50;;
18899;SDS011;9582;52.018;6.306;2024-03-23T10:28:10;4.97;;;1.60;;
18899;SDS011;9582;52.018;6.306;2024-03-23T10:30:36;6.37;;;1.97;;
18899;SDS011;9582;52.018;6.306;2024-03-23T10:33:09;2.27;;;0.83;;
18899;SDS011;9582;52.018;6.306;2024-03-23T10:35:36;5.50;;;1.27;;
18899;SDS011;9582;52.018;6.306;2024-03-23T10:38:06;4.53;;;1.43;;
18899;SDS011;9582;52.018;6.306;2024-03-23T10:40:33;3.40;;;0.73;;
18899;SDS011;9582;52.018;6.306;2024-03-23T10:43:01;3.97;;;0.93;;
18899;SDS011;9582;52.018;6.306;2024-03-23T10:45:28;4.97;;;1.53;;
18899;SDS011;9582;52.018;6.306;2024-03-23T10:47:55;4.47;;;1.23;;
18899;SDS011;9582;52.018;6.306;2024-03-23T10:50:21;4.30;;;1.30;;
18899;SDS011;9582;52.018;6.306;2024-03-23T10:52:48;4.47;;;1.93;;
18899;SDS011;9582;52.018;6.306;2024-03-23T10:55:16;6.20;;;1.87;;
18899;SDS011;9582;52.018;6.306;2024-03-23T10:57:51;3.17;;;1.30;;
18899;SDS011;9582;52.018;6.306;2024-03-23T11:00:19;9.37;;;1.90;;
18899;SDS011;9582;52.018;6.306;2024-03-23T11:02:48;6.20;;;1.70;;
18899;SDS011;9582;52.018;6.306;2024-03-23T11:05:29;9.43;;;1.73;;
18899;SDS011;9582;52.018;6.306;2024-03-23T11:07:57;3.23;;;1.30;;
18899;SDS011;9582;52.018;6.306;2024-03-23T11:10:27;5.27;;;1.63;;
18899;SDS011;9582;52.018;6.306;2024-03-23T11:12:55;4.63;;;1.60;;
18899;SDS011;9582;52.018;6.306;2024-03-23T11:15:21;5.90;;;1.40;;
18899;SDS011;9582;52.018;6.306;2024-03-23T11:18:03;1.87;;;0.97;;
18899;SDS011;9582;52.018;6.306;2024-03-23T11:20:31;4.00;;;0.97;;
18899;SDS011;9582;52.018;6.306;2024-03-23T11:22:58;4.33;;;2.17;;
18899;SDS011;9582;52.018;6.306;2024-03-23T11:25:26;3.17;;;1.33;;
18899;SDS011;9582;52.018;6.306;2024-03-23T11:27:54;4.13;;;1.50;;
18899;SDS011;9582;52.018;6.306;2024-03-23T11:30:22;5.63;;;1.20;;
18899;SDS011;9582;52.018;6.306;2024-03-23T11:32:50;2.43;;;0.90;;
18899;SDS011;9582;52.018;6.306;2024-03-23T11:35:28;6.03;;;2.37;;
18899;SDS011;9582;52.018;6.306;2024-03-23T11:38:06;5.03;;;1.20;;
18899;SDS011;9582;52.018;6.306;2024-03-23T11:40:34;4.83;;;2.23;;
18899;SDS011;9582;52.018;6.306;2024-03-23T11:43:02;7.47;;;2.20;;
18899;SDS011;9582;52.018;6.306;2024-03-23T11:45:33;1.50;;;0.87;;
18899;SDS011;9582;52.018;6.306;2024-03-23T11:48:05;4.27;;;1.40;;
18899;SDS011;9582;52.018;6.306;2024-03-23T11:50:32;4.30;;;1.03;;
18899;SDS011;9582;52.018;6.306;2024-03-23T11:53:11;1.07;;;0.97;;
18899;SDS011;9582;52.018;6.306;2024-03-23T11:55:41;2.00;;;0.80;;
18899;SDS011;9582;52.018;6.306;2024-03-23T11:58:08;6.60;;;1.17;;
18899;SDS011;9582;52.018;6.306;2024-03-23T12:00:34;3.50;;;0.70;;
18899;SDS011;9582;52.018;6.306;2024-03-23T12:03:01;2.60;;;0.73;;
18899;SDS011;9582;52.018;6.306;2024-03-23T12:05:26;2.40;;;0.80;;
18899;SDS011;9582;52.018;6.306;2024-03-23T12:07:53;6.27;;;1.10;;
18899;SDS011;9582;52.018;6.306;2024-03-23T12:10:19;5.07;;;0.87;;
18899;SDS011;9582;52.018;6.306;2024-03-23T12:12:51;3.83;;;0.67;;
18899;SDS011;9582;52.018;6.306;2024-03-23T12:15:24;1.03;;;0.70;;
18899;SDS011;9582;52.018;6.306;2024-03-23T12:17:51;5.53;;;1.10;;
18899;SDS011;9582;52.018;6.306;2024-03-23T12:20:17;3.67;;;1.40;;
18899;SDS011;9582;52.018;6.306;2024-03-23T12:22:44;2.47;;;1.30;;
18899;SDS011;9582;52.018;6.306;2024-03-23T12:25:10;4.40;;;1.40;;
18899;SDS011;9582;52.018;6.306;2024-03-23T12:27:37;2.73;;;1.33;;
18899;SDS011;9582;52.018;6.306;2024-03-23T12:30:05;2.73;;;1.20;;
18899;SDS011;9582;52.018;6.306;2024-03-23T12:32:32;4.43;;;1.40;;
18899;SDS011;9582;52.018;6.306;2024-03-23T12:34:58;5.70;;;1.10;;
18899;SDS011;9582;52.018;6.306;2024-03-23T12:37:25;3.13;;;1.07;;
18899;SDS011;9582;52.018;6.306;2024-03-23T12:39:50;1.60;;;0.87;;
18899;SDS011;9582;52.018;6.306;2024-03-23T12:42:17;1.90;;;1.03;;
18899;SDS011;9582;52.018;6.306;2024-03-23T12:44:42;5.27;;;1.00;;
18899;SDS011;9582;52.018;6.306;2024-03-23T12:47:10;4.13;;;1.07;;
18899;SDS011;9582;52.018;6.306;2024-03-23T12:49:36;2.87;;;0.80;;
18899;SDS011;9582;52.018;6.306;2024-03-23T12:52:03;8.03;;;1.33;;
18899;SDS011;9582;52.018;6.306;2024-03-23T12:54:30;5.03;;;0.90;;
18899;SDS011;9582;52.018;6.306;2024-03-23T12:56:56;6.47;;;1.40;;
18899;SDS011;9582;52.018;6.306;2024-03-23T12:59:22;5.43;;;1.50;;
18899;SDS011;9582;52.018;6.306;2024-03-23T13:01:48;1.97;;;0.87;;
18899;SDS011;9582;52.018;6.306;2024-03-23T13:04:15;1.80;;;0.73;;
18899;SDS011;9582;52.018;6.306;2024-03-23T13:06:42;2.77;;;1.07;;
18899;SDS011;9582;52.018;6.306;2024-03-23T13:09:08;2.40;;;0.83;;
18899;SDS011;9582;52.018;6.306;2024-03-23T13:11:34;3.40;;;0.63;;
18899;SDS011;9582;52.018;6.306;2024-03-23T13:14:00;2.53;;;1.10;;
18899;SDS011;9582;52.018;6.306;2024-03-23T13:16:29;9.13;;;1.60;;
18899;SDS011;9582;52.018;6.306;2024-03-23T13:18:54;4.93;;;1.93;;
18899;SDS011;9582;52.018;6.306;2024-03-23T13:21:22;4.63;;;1.20;;
18899;SDS011;9582;52.018;6.306;2024-03-23T13:23:48;2.70;;;1.13;;
18899;SDS011;9582;52.018;6.306;2024-03-23T13:26:16;7.57;;;1.57;;
18899;SDS011;9582;52.018;6.306;2024-03-23T13:28:41;2.17;;;1.20;;
18899;SDS011;9582;52.018;6.306;2024-03-23T13:31:08;1.00;;;0.80;;
18899;SDS011;9582;52.018;6.306;2024-03-23T13:33:34;1.77;;;0.80;;
18899;SDS011;9582;52.018;6.306;2024-03-23T13:36:00;2.50;;;1.20;;
18899;SDS011;9582;52.018;6.306;2024-03-23T13:38:28;1.67;;;0.90;;
18899;SDS011;9582;52.018;6.306;2024-03-23T13:40:55;2.70;;;1.00;;
18899;SDS011;9582;52.018;6.306;2024-03-23T13:43:22;2.50;;;1.00;;
18899;SDS011;9582;52.018;6.306;2024-03-23T13:45:50;3.60;;;1.50;;
18899;SDS011;9582;52.018;6.306;2024-03-23T13:48:18;4.03;;;1.53;;
18899;SDS011;9582;52.018;6.306;2024-03-23T13:50:45;1.53;;;0.57;;
18899;SDS011;9582;52.018;6.306;2024-03-23T13:53:12;0.90;;;0.50;;
18899;SDS011;9582;52.018;6.306;2024-03-23T13:55:47;5.17;;;1.23;;
18899;SDS011;9582;52.018;6.306;2024-03-23T13:58:13;4.20;;;1.30;;
18899;SDS011;9582;52.018;6.306;2024-03-23T14:00:40;5.37;;;1.50;;
18899;SDS011;9582;52.018;6.306;2024-03-23T14:03:07;5.27;;;1.50;;
18899;SDS011;9582;52.018;6.306;2024-03-23T14:05:33;6.20;;;1.67;;
18899;SDS011;9582;52.018;6.306;2024-03-23T14:07:59;4.40;;;2.03;;
18899;SDS011;9582;52.018;6.306;2024-03-23T14:10:25;6.63;;;2.03;;
18899;SDS011;9582;52.018;6.306;2024-03-23T14:12:54;2.33;;;1.00;;
18899;SDS011;9582;52.018;6.306;2024-03-23T14:15:20;4.47;;;1.70;;
18899;SDS011;9582;52.018;6.306;2024-03-23T14:17:46;2.53;;;1.50;;
18899;SDS011;9582;52.018;6.306;2024-03-23T14:20:12;11.20;;;1.97;;
18899;SDS011;9582;52.018;6.306;2024-03-23T14:22:38;3.53;;;1.60;;
18899;SDS011;9582;52.018;6.306;2024-03-23T14:25:06;4.77;;;1.67;;
18899;SDS011;9582;52.018;6.306;2024-03-23T14:27:32;4.00;;;1.50;;
18899;SDS011;9582;52.018;6.306;2024-03-23T14:30:04;2.27;;;1.00;;
18899;SDS011;9582;52.018;6.306;2024-03-23T14:32:30;7.53;;;1.67;;
18899;SDS011;9582;52.018;6.306;2024-03-23T14:34:59;4.17;;;1.40;;
18899;SDS011;9582;52.018;6.306;2024-03-23T14:37:25;10.07;;;1.70;;
18899;SDS011;9582;52.018;6.306;2024-03-23T14:39:51;7.37;;;2.20;;
18899;SDS011;9582;52.018;6.306;2024-03-23T14:42:17;3.20;;;1.53;;
18899;SDS011;9582;52.018;6.306;2024-03-23T14:44:44;4.90;;;1.30;;
18899;SDS011;9582;52.018;6.306;2024-03-23T14:47:11;5.17;;;1.13;;
18899;SDS011;9582;52.018;6.306;2024-03-23T14:49:37;8.43;;;1.60;;
18899;SDS011;9582;52.018;6.306;2024-03-23T14:52:03;4.63;;;1.30;;
18899;SDS011;9582;52.018;6.306;2024-03-23T14:54:30;5.93;;;1.30;;
18899;SDS011;9582;52.018;6.306;2024-03-23T14:56:56;4.60;;;1.40;;
18899;SDS011;9582;52.018;6.306;2024-03-23T14:59:23;4.27;;;0.83;;
18899;SDS011;9582;52.018;6.306;2024-03-23T15:01:49;4.10;;;1.20;;
18899;SDS011;9582;52.018;6.306;2024-03-23T15:04:17;3.33;;;2.63;;
18899;SDS011;9582;52.018;6.306;2024-03-23T15:06:43;4.00;;;1.17;;
18899;SDS011;9582;52.018;6.306;2024-03-23T15:09:11;1.17;;;1.07;;
18899;SDS011;9582;52.018;6.306;2024-03-23T15:11:39;3.13;;;0.80;;
18899;SDS011;9582;52.018;6.306;2024-03-23T15:14:04;3.70;;;1.00;;
18899;SDS011;9582;52.018;6.306;2024-03-23T15:16:32;3.33;;;0.90;;
18899;SDS011;9582;52.018;6.306;2024-03-23T15:18:58;3.70;;;0.70;;
18899;SDS011;9582;52.018;6.306;2024-03-23T15:21:26;4.33;;;1.00;;
18899;SDS011;9582;52.018;6.306;2024-03-23T15:23:52;6.80;;;1.30;;
18899;SDS011;9582;52.018;6.306;2024-03-23T15:26:18;3.70;;;1.40;;
18899;SDS011;9582;52.018;6.306;2024-03-23T15:28:47;2.73;;;1.10;;
18899;SDS011;9582;52.018;6.306;2024-03-23T15:31:32;3.00;;;1.10;;
18899;SDS011;9582;52.018;6.306;2024-03-23T15:33:58;4.13;;;1.13;;
18899;SDS011;9582;52.018;6.306;2024-03-23T15:36:24;3.13;;;1.33;;
18899;SDS011;9582;52.018;6.306;2024-03-23T15:38:51;2.63;;;1.00;;
18899;SDS011;9582;52.018;6.306;2024-03-23T15:41:20;4.23;;;1.07;;
18899;SDS011;9582;52.018;6.306;2024-03-23T15:43:48;5.53;;;1.33;;